Time;durP1;ratioP1;P1;durP2;ratioP2;P2;SDS_P1;SDS_P2;PMS_P1;PMS_P2;Temp;Humidity;BMP_temperature;BMP_pressure;BME280_temperature;BME280_humidity;BME280_pressure;Samples;Min_cycle;Max_cycle;Signal;HPM_P1;HPM_P2
2021/03/19 00:00:15;;;;;;;2.55;1.40;;;3.70;99.90;;;;;;5074003;28;20078;-72
2021/03/19 00:02:41;;;;;;;6.97;1.65;;;3.70;99.90;;;;;;5067838;28;20046;-72
2021/03/19 00:05:12;;;;;;;5.90;1.98;;;3.60;99.90;;;;;;5074772;28;20104;-72
2021/03/19 00:07:45;;;;;;;4.57;2.15;;;3.60;99.90;;;;;;5072766;28;20055;-72
2021/03/19 00:10:15;;;;;;;4.15;1.85;;;3.70;99.90;;;;;;5075687;28;20095;-72
2021/03/19 00:12:41;;;;;;;5.28;1.80;;;3.70;99.90;;;;;;5073158;28;20012;-73
2021/03/19 00:15:08;;;;;;;4.85;1.90;;;3.70;99.90;;;;;;5075082;28;20116;-72
2021/03/19 00:17:34;;;;;;;4.72;1.83;;;3.70;99.90;;;;;;5073824;28;20070;-72
2021/03/19 00:19:59;;;;;;;8.85;2.50;;;3.80;99.90;;;;;;5062851;28;20380;-72
2021/03/19 00:22:25;;;;;;;3.70;2.40;;;3.80;99.90;;;;;;5073978;28;20041;-72
2021/03/19 00:24:50;;;;;;;5.57;2.10;;;3.80;99.90;;;;;;5073247;28;20032;-71
2021/03/19 00:27:16;;;;;;;4.50;2.45;;;3.70;99.90;;;;;;5075005;28;20067;-73
2021/03/19 00:29:42;;;;;;;3.88;2.33;;;3.60;99.90;;;;;;5074424;28;20024;-72
2021/03/19 00:32:07;;;;;;;3.22;2.17;;;3.70;99.90;;;;;;5074995;28;20075;-71
2021/03/19 00:34:33;;;;;;;5.13;2.67;;;3.60;99.90;;;;;;5073919;28;20179;-71
2021/03/19 00:36:59;;;;;;;3.13;2.38;;;3.60;99.90;;;;;;5074966;28;20357;-72
2021/03/19 00:39:24;;;;;;;3.20;2.30;;;3.60;99.90;;;;;;5074453;28;20035;-73
2021/03/19 00:41:51;;;;;;;3.35;2.35;;;3.60;99.90;;;;;;5073492;28;20017;-72
2021/03/19 00:44:16;;;;;;;4.88;2.53;;;3.60;99.90;;;;;;5075309;28;20366;-72
2021/03/19 00:46:42;;;;;;;5.00;2.13;;;3.50;99.90;;;;;;5076269;28;20032;-72
2021/03/19 00:49:07;;;;;;;6.85;2.30;;;3.50;99.90;;;;;;5078384;28;20551;-72
2021/03/19 00:51:33;;;;;;;7.18;2.65;;;3.40;99.90;;;;;;5076398;28;20024;-73
2021/03/19 00:53:59;;;;;;;3.00;2.47;;;3.40;99.90;;;;;;5072234;28;20111;-73
2021/03/19 00:56:24;;;;;;;2.85;2.53;;;3.40;99.90;;;;;;5062316;28;20025;-73
2021/03/19 00:58:50;;;;;;;4.85;2.38;;;3.30;99.90;;;;;;5071649;28;20025;-73
2021/03/19 01:01:15;;;;;;;5.47;2.42;;;3.30;99.90;;;;;;5073775;28;20111;-72
2021/03/19 01:03:41;;;;;;;6.72;2.40;;;3.30;99.90;;;;;;5074803;28;20356;-72
2021/03/19 01:06:07;;;;;;;3.75;2.58;;;3.30;99.90;;;;;;5072019;28;20029;-72
2021/03/19 01:08:32;;;;;;;2.92;2.38;;;3.30;99.90;;;;;;5073453;28;20491;-73
2021/03/19 01:10:58;;;;;;;9.10;2.65;;;3.30;99.90;;;;;;5074397;28;20107;-72
2021/03/19 01:13:25;;;;;;;2.67;2.10;;;3.30;99.90;;;;;;5072715;28;20037;-73
2021/03/19 01:15:51;;;;;;;10.43;3.63;;;3.30;99.90;;;;;;5073599;28;20024;-73
2021/03/19 01:18:19;;;;;;;5.93;3.95;;;3.20;99.90;;;;;;5072003;28;20029;-73
2021/03/19 01:20:46;;;;;;;3.55;2.50;;;3.20;99.90;;;;;;5073214;28;20031;-73
2021/03/19 01:23:12;;;;;;;5.83;2.83;;;3.20;99.90;;;;;;5073532;28;20036;-73
2021/03/19 01:25:57;;;;;;;3.55;2.30;;;3.20;99.90;;;;;;5071836;28;20071;-73
2021/03/19 01:28:22;;;;;;;3.03;2.13;;;3.20;99.90;;;;;;5072140;28;20044;-72
2021/03/19 01:30:48;;;;;;;3.85;2.65;;;3.10;99.90;;;;;;5072425;28;20484;-73
2021/03/19 01:33:14;;;;;;;3.92;2.47;;;3.10;99.90;;;;;;5072698;28;20492;-72
2021/03/19 01:35:41;;;;;;;6.22;2.78;;;3.10;99.90;;;;;;5069978;28;20037;-72
2021/03/19 01:38:09;;;;;;;5.43;2.33;;;3.10;99.90;;;;;;5071970;28;20051;-73
2021/03/19 01:40:40;;;;;;;2.85;2.40;;;3.10;99.90;;;;;;5072077;28;20058;-73
2021/03/19 01:43:10;;;;;;;4.15;2.35;;;3.10;99.90;;;;;;5073973;28;20111;-72
2021/03/19 01:46:03;;;;;;;3.88;2.42;;;3.10;99.90;;;;;;5071614;28;20055;-72
2021/03/19 01:49:06;;;;;;;2.88;2.30;;;3.10;99.90;;;;;;5072040;28;20060;-72
2021/03/19 01:55:31;;;;;;;6.05;2.65;;;3.00;99.90;;;;;;5069951;28;20053;-73
2021/03/19 01:58:34;;;;;;;2.92;2.35;;;2.90;99.90;;;;;;5072055;28;20032;-73
2021/03/19 02:01:37;;;;;;;3.20;2.25;;;2.90;99.90;;;;;;5070922;28;20036;-73
2021/03/19 02:04:40;;;;;;;3.45;2.45;;;2.90;99.90;;;;;;5073100;28;20036;-74
2021/03/19 02:07:43;;;;;;;6.93;2.55;;;2.90;99.90;;;;;;5073081;28;20054;-73
2021/03/19 02:10:46;;;;;;;4.72;2.55;;;2.90;99.90;;;;;;5079888;28;20036;-73
2021/03/19 02:13:49;;;;;;;7.40;1.92;;;2.80;99.90;;;;;;5077854;28;20033;-73
2021/03/19 02:16:52;;;;;;;17.35;2.67;;;2.80;99.90;;;;;;5076520;28;20066;-73
2021/03/19 02:19:56;;;;;;;5.15;2.30;;;2.80;99.90;;;;;;5075473;28;20498;-73
2021/03/19 02:22:59;;;;;;;3.40;2.60;;;2.80;99.90;;;;;;5073639;28;20047;-72
2021/03/19 02:26:02;;;;;;;6.18;2.42;;;2.80;99.90;;;;;;5073505;28;20040;-73
2021/03/19 02:29:05;;;;;;;4.95;2.78;;;2.80;99.90;;;;;;5071611;28;20093;-74
2021/03/19 02:31:52;;;;;;;6.00;2.53;;;2.80;99.90;;;;;;5071718;28;20032;-74
2021/03/19 02:34:20;;;;;;;2.97;1.85;;;2.70;99.90;;;;;;5072522;28;20512;-74
2021/03/19 02:36:46;;;;;;;4.15;2.38;;;2.70;99.90;;;;;;5071447;28;20365;-73
2021/03/19 02:39:11;;;;;;;6.10;2.88;;;2.70;99.90;;;;;;5072686;28;20021;-73
2021/03/19 02:41:37;;;;;;;10.40;3.15;;;2.70;99.90;;;;;;5071642;28;20020;-73
2021/03/19 02:44:02;;;;;;;6.13;3.20;;;2.70;99.90;;;;;;5071435;28;20020;-72
2021/03/19 02:46:28;;;;;;;3.72;2.30;;;2.60;99.90;;;;;;5072860;28;20037;-73
2021/03/19 02:48:54;;;;;;;8.38;2.90;;;2.60;99.90;;;;;;5070917;28;20028;-75
2021/03/19 02:51:19;;;;;;;5.25;2.60;;;2.60;99.90;;;;;;5063665;28;20051;-73
2021/03/19 02:53:45;;;;;;;5.55;2.83;;;2.60;99.90;;;;;;5070869;28;20020;-73
2021/03/19 02:56:11;;;;;;;5.30;2.80;;;2.60;99.90;;;;;;5071832;28;20032;-74
2021/03/19 02:58:37;;;;;;;5.07;2.60;;;2.60;99.90;;;;;;5072694;28;20020;-73
2021/03/19 03:01:05;;;;;;;8.68;2.95;;;2.50;99.90;;;;;;5070511;28;20390;-73
2021/03/19 03:03:31;;;;;;;4.70;3.10;;;2.60;99.90;;;;;;5071020;28;20111;-73
2021/03/19 03:05:57;;;;;;;6.15;2.85;;;2.50;99.90;;;;;;5069128;28;20032;-73
2021/03/19 03:08:23;;;;;;;4.80;2.53;;;2.50;99.90;;;;;;5073489;28;20089;-73
2021/03/19 03:10:51;;;;;;;7.20;2.53;;;2.50;99.90;;;;;;5075214;28;20459;-73
2021/03/19 03:13:17;;;;;;;;;;;2.50;99.90;;;;;;5076429;28;20035;-72
2021/03/19 03:15:43;;;;;;;6.82;2.10;;;2.50;99.90;;;;;;5076040;28;19916;-73
2021/03/19 03:18:10;;;;;;;12.35;2.92;;;2.50;99.90;;;;;;5076387;28;20013;-73
2021/03/19 03:20:57;;;;;;;6.35;2.25;;;2.40;99.90;;;;;;5074413;28;20477;-74
2021/03/19 03:23:24;;;;;;;6.70;2.78;;;2.40;99.90;;;;;;5075510;28;20137;-71
2021/03/19 03:25:50;;;;;;;5.43;2.80;;;2.40;99.90;;;;;;5075891;28;20361;-73
2021/03/19 03:28:17;;;;;;;7.47;2.72;;;2.40;99.90;;;;;;5076103;28;20095;-74
2021/03/19 03:30:50;;;;;;;8.65;2.55;;;2.40;99.90;;;;;;5076148;28;20024;-73
2021/03/19 03:33:16;;;;;;;5.18;2.50;;;2.40;99.90;;;;;;5073419;28;20170;-73
2021/03/19 03:35:43;;;;;;;9.55;2.72;;;2.40;99.90;;;;;;5078630;28;20040;-73
2021/03/19 03:38:13;;;;;;;10.73;2.97;;;2.40;99.90;;;;;;5076567;28;20058;-73
2021/03/19 03:40:43;;;;;;;7.95;2.22;;;2.30;99.90;;;;;;5072741;28;20427;-73
2021/03/19 03:43:12;;;;;;;7.05;2.35;;;2.30;99.90;;;;;;5076136;28;20047;-73
2021/03/19 03:45:38;;;;;;;6.35;2.30;;;2.30;99.90;;;;;;5076958;28;20024;-73
2021/03/19 03:48:04;;;;;;;3.75;1.98;;;2.30;99.90;;;;;;5067612;28;20036;-73
2021/03/19 03:50:30;;;;;;;10.75;2.70;;;2.30;99.90;;;;;;5064513;28;20060;-73
2021/03/19 03:52:55;;;;;;;5.18;2.22;;;2.30;99.90;;;;;;5066521;28;20029;-72
2021/03/19 03:55:22;;;;;;;9.10;2.45;;;2.30;99.90;;;;;;5063772;28;20066;-73
2021/03/19 03:57:47;;;;;;;12.10;2.35;;;2.30;99.90;;;;;;5062921;28;20024;-74
2021/03/19 04:00:17;;;;;;;6.22;2.80;;;2.30;99.90;;;;;;5064016;28;20016;-73
2021/03/19 04:02:42;;;;;;;10.18;2.78;;;2.20;99.90;;;;;;5068152;28;20082;-72
2021/03/19 04:05:12;;;;;;;4.40;2.60;;;2.20;99.90;;;;;;5065432;28;20029;-73
2021/03/19 04:07:37;;;;;;;6.43;2.17;;;2.20;99.90;;;;;;5064471;28;20016;-73
2021/03/19 04:10:05;;;;;;;8.48;2.78;;;2.20;99.90;;;;;;5065242;28;20070;-73
2021/03/19 04:12:31;;;;;;;9.23;3.72;;;2.20;99.90;;;;;;5064788;28;20028;-74
2021/03/19 04:14:56;;;;;;;9.00;2.65;;;2.20;99.90;;;;;;5063799;28;20037;-74
2021/03/19 04:17:28;;;;;;;10.68;2.90;;;2.20;99.90;;;;;;5065942;28;20100;-71
2021/03/19 04:19:56;;;;;;;4.82;2.70;;;2.20;99.90;;;;;;5065043;28;20040;-75
2021/03/19 04:22:22;;;;;;;5.82;2.65;;;2.20;99.90;;;;;;5065915;28;20096;-73
2021/03/19 04:24:48;;;;;;;7.47;2.47;;;2.20;99.90;;;;;;5063901;28;20451;-71
2021/03/19 04:27:20;;;;;;;7.90;2.65;;;2.20;99.90;;;;;;5063595;28;20016;-72
2021/03/19 04:29:46;;;;;;;8.15;2.80;;;2.20;99.90;;;;;;5065154;28;20029;-75
2021/03/19 04:32:12;;;;;;;8.80;2.58;;;2.10;99.90;;;;;;5063987;28;20029;-72
2021/03/19 04:34:38;;;;;;;6.45;2.50;;;2.20;99.90;;;;;;5069510;28;20477;-73
2021/03/19 04:37:06;;;;;;;9.40;2.72;;;2.20;99.90;;;;;;5073979;28;20043;-72
2021/03/19 04:39:37;;;;;;;9.43;2.10;;;2.20;99.90;;;;;;5067374;28;20020;-72
2021/03/19 04:42:11;;;;;;;9.30;2.83;;;2.20;99.90;;;;;;5070741;28;20029;-71
2021/03/19 04:44:41;;;;;;;7.43;2.67;;;2.10;99.90;;;;;;5070330;28;20532;-72
2021/03/19 04:47:08;;;;;;;11.00;3.10;;;2.20;99.90;;;;;;5072257;28;20037;-72
2021/03/19 04:49:34;;;;;;;12.93;3.05;;;2.20;99.90;;;;;;5059354;28;20068;-71
2021/03/19 04:52:01;;;;;;;9.75;2.63;;;2.10;99.90;;;;;;5067510;28;20361;-71
2021/03/19 04:54:26;;;;;;;11.52;3.13;;;2.20;99.90;;;;;;5072554;28;20036;-72
2021/03/19 04:56:52;;;;;;;7.80;2.72;;;2.20;99.90;;;;;;5072558;28;20033;-72
2021/03/19 04:59:18;;;;;;;10.70;3.13;;;2.20;99.90;;;;;;5071734;28;20036;-75
2021/03/19 05:01:55;;;;;;;16.45;2.60;;;2.10;99.90;;;;;;5069951;28;20097;-72
2021/03/19 05:04:22;;;;;;;10.48;3.22;;;2.10;99.90;;;;;;5078546;28;20060;-72
2021/03/19 05:06:50;;;;;;;9.25;2.65;;;2.10;99.90;;;;;;5069549;28;20040;-73
2021/03/19 05:09:16;;;;;;;5.03;1.80;;;2.10;99.90;;;;;;5069219;28;20044;-73
2021/03/19 05:11:42;;;;;;;6.88;3.20;;;2.10;99.90;;;;;;5074994;28;20063;-72
2021/03/19 05:14:08;;;;;;;8.60;2.30;;;2.10;99.90;;;;;;5074644;28;20060;-72
2021/03/19 05:16:33;;;;;;;4.65;2.25;;;2.00;99.90;;;;;;5065605;28;20032;-72
2021/03/19 05:18:59;;;;;;;4.88;2.70;;;2.00;99.90;;;;;;5064975;28;20020;-73
2021/03/19 05:21:25;;;;;;;6.28;2.78;;;2.00;99.90;;;;;;5059974;28;20058;-73
2021/03/19 05:23:50;;;;;;;9.52;2.80;;;2.00;99.90;;;;;;5063457;28;20028;-72
2021/03/19 05:26:16;;;;;;;13.25;2.67;;;2.00;99.90;;;;;;5063871;28;20040;-76
2021/03/19 05:28:42;;;;;;;7.57;3.00;;;2.00;99.90;;;;;;5065052;28;20028;-73
2021/03/19 05:31:07;;;;;;;9.32;2.55;;;2.00;99.90;;;;;;5060350;28;20029;-73
2021/03/19 05:33:48;;;;;;;8.98;2.53;;;1.90;99.90;;;;;;5065369;28;20072;-73
2021/03/19 05:36:16;;;;;;;3.10;2.45;;;1.90;99.90;;;;;;5063482;28;20033;-75
2021/03/19 05:38:42;;;;;;;10.73;2.60;;;1.90;99.90;;;;;;5062612;28;20073;-73
2021/03/19 05:41:08;;;;;;;12.50;2.70;;;1.90;99.90;;;;;;5064549;28;20016;-73
2021/03/19 05:43:38;;;;;;;8.43;2.63;;;1.90;99.90;;;;;;5065597;28;20055;-73
2021/03/19 05:46:14;;;;;;;8.20;2.45;;;1.90;99.90;;;;;;5065634;28;20050;-72
2021/03/19 05:48:43;;;;;;;7.72;3.10;;;1.90;99.90;;;;;;5058917;28;20512;-73
2021/03/19 05:51:23;;;;;;;9.52;2.80;;;2.00;99.90;;;;;;5061667;28;20031;-75
2021/03/19 05:53:55;;;;;;;10.52;3.65;;;2.00;99.90;;;;;;5063310;28;20050;-72
2021/03/19 05:56:28;;;;;;;9.68;2.83;;;1.90;99.90;;;;;;5063903;28;20021;-73
2021/03/19 05:58:53;;;;;;;7.97;3.13;;;1.90;99.90;;;;;;5060180;28;20058;-74
2021/03/19 06:01:19;;;;;;;9.20;2.95;;;2.00;99.90;;;;;;5059701;28;20041;-75
2021/03/19 06:03:45;;;;;;;9.30;2.53;;;2.00;99.90;;;;;;5064172;28;20043;-72
2021/03/19 06:06:12;;;;;;;6.65;3.38;;;2.00;99.90;;;;;;5062518;28;20063;-72
2021/03/19 06:08:42;;;;;;;2.95;2.20;;;2.10;99.90;;;;;;5062905;28;20395;-72
2021/03/19 06:11:34;;;;;;;4.20;2.70;;;2.20;99.90;;;;;;5063313;28;20028;-75
2021/03/19 06:14:16;;;;;;;17.25;3.00;;;2.20;99.90;;;;;;5058789;28;20033;-72
2021/03/19 06:16:45;;;;;;;7.32;2.88;;;2.20;99.90;;;;;;5063808;28;20029;-72
2021/03/19 06:19:24;;;;;;;10.60;3.45;;;2.30;99.90;;;;;;5061881;28;20025;-72
2021/03/19 06:22:00;;;;;;;11.20;3.42;;;2.30;99.90;;;;;;5063177;28;20023;-74
2021/03/19 06:24:28;;;;;;;6.40;3.13;;;2.40;99.90;;;;;;5063048;28;20031;-73
2021/03/19 06:27:09;;;;;;;9.75;2.90;;;2.40;99.90;;;;;;5062103;28;20036;-74
2021/03/19 06:29:45;;;;;;;8.00;3.10;;;2.40;99.90;;;;;;5065219;28;20352;-73
2021/03/19 06:32:27;;;;;;;7.75;2.58;;;2.50;99.90;;;;;;5063931;28;20825;-76
2021/03/19 06:35:19;;;;;;;9.60;3.28;;;2.60;99.90;;;;;;5060426;28;20032;-74
2021/03/19 06:37:48;;;;;;;7.40;2.83;;;2.60;99.90;;;;;;5054351;28;20590;-75
2021/03/19 06:40:31;;;;;;;9.57;2.65;;;2.70;99.90;;;;;;5063899;28;20021;-73
2021/03/19 06:43:18;;;;;;;12.57;2.75;;;2.80;99.90;;;;;;5059783;28;20519;-75
2021/03/19 06:45:46;;;;;;;5.68;3.25;;;2.90;99.90;;;;;;5062593;28;20393;-75
2021/03/19 06:48:52;;;;;;;13.63;3.25;;;3.00;99.90;;;;;;5077208;28;20458;-73
2021/03/19 06:51:30;;;;;;;8.70;3.10;;;3.00;99.90;;;;;;5055063;28;20063;-73
2021/03/19 06:54:04;;;;;;;14.88;3.22;;;3.10;99.90;;;;;;5068384;28;20127;-75
2021/03/19 06:56:30;;;;;;;12.90;3.25;;;3.10;99.90;;;;;;5063609;28;20024;-73
2021/03/19 06:58:56;;;;;;;8.55;2.97;;;3.20;99.90;;;;;;5061208;28;20020;-74
2021/03/19 07:01:39;;;;;;;8.00;3.53;;;3.30;99.90;;;;;;5062857;28;20033;-73
2021/03/19 07:04:35;;;;;;;20.02;4.97;;;3.40;99.90;;;;;;5059869;28;20033;-76
2021/03/19 07:07:20;;;;;;;8.10;3.05;;;3.40;99.90;;;;;;5063181;28;20032;-75
2021/03/19 07:09:58;;;;;;;8.57;2.70;;;3.50;99.90;;;;;;5063506;28;20025;-75
2021/03/19 07:12:33;;;;;;;11.23;3.03;;;3.60;99.90;;;;;;5061899;28;20036;-76
2021/03/19 07:15:13;;;;;;;7.72;2.58;;;3.70;99.90;;;;;;5065011;28;20111;-75
2021/03/19 07:17:48;;;;;;;11.02;2.50;;;3.80;99.90;;;;;;5067269;28;20025;-73
2021/03/19 07:20:24;;;;;;;7.38;2.92;;;3.90;99.90;;;;;;5070935;28;20029;-74
2021/03/19 07:23:02;;;;;;;5.97;3.65;;;3.90;99.90;;;;;;5072563;28;20055;-73
2021/03/19 07:25:49;;;;;;;10.55;3.28;;;4.00;99.90;;;;;;5067281;28;20346;-74
2021/03/19 07:28:33;;;;;;;14.93;3.13;;;4.00;99.90;;;;;;5068111;28;20024;-73
2021/03/19 07:31:14;;;;;;;16.92;3.35;;;4.20;99.90;;;;;;5070236;28;20024;-75
2021/03/19 07:36:46;;;;;;;8.45;2.53;;;4.40;99.90;;;;;;5108344;27;735164;-74
2021/03/19 07:39:41;;;;;;;5.45;2.60;;;4.50;99.90;;;;;;5107503;28;20020;-74
2021/03/19 07:42:19;;;;;;;8.15;3.03;;;4.50;99.90;;;;;;5081861;28;20515;-74
2021/03/19 07:44:57;;;;;;;10.75;3.65;;;4.60;99.90;;;;;;5082539;28;20542;-75
2021/03/19 07:48:00;;;;;;;9.45;2.75;;;4.60;99.90;;;;;;5079585;28;20028;-74
2021/03/19 07:50:32;;;;;;;12.25;2.88;;;4.60;99.90;;;;;;5060146;28;20036;-74
2021/03/19 07:53:07;;;;;;;7.75;3.63;;;4.70;99.90;;;;;;5059938;28;20108;-74
2021/03/19 07:56:01;;;;;;;7.13;2.83;;;4.80;99.90;;;;;;5073734;28;20116;-76
2021/03/19 07:58:49;;;;;;;10.23;3.42;;;4.90;99.90;;;;;;5079427;28;20024;-75
2021/03/19 08:01:37;;;;;;;18.27;3.35;;;5.00;99.90;;;;;;5079961;28;20032;-74
2021/03/19 08:04:38;;;;;;;10.32;2.55;;;5.20;99.90;;;;;;5072761;28;20060;-76
2021/03/19 08:07:26;;;;;;;8.82;2.58;;;5.30;99.90;;;;;;5083773;28;20021;-73
2021/03/19 08:09:58;;;;;;;5.55;3.58;;;5.40;99.90;;;;;;5067117;28;20465;-75
2021/03/19 08:12:42;;;;;;;13.02;2.70;;;5.30;99.90;;;;;;5057626;28;20406;-74
2021/03/19 08:15:38;;;;;;;14.43;2.83;;;5.40;99.90;;;;;;5075255;28;20067;-74
2021/03/19 08:18:18;;;;;;;6.53;2.50;;;5.60;99.90;;;;;;5060587;28;20484;-74
2021/03/19 08:21:10;;;;;;;10.63;2.58;;;5.80;99.90;;;;;;5077076;28;20105;-73
2021/03/19 08:23:54;;;;;;;15.90;2.53;;;5.80;99.90;;;;;;5082864;28;20031;-73
2021/03/19 08:26:29;;;;;;;6.30;2.08;;;5.80;99.90;;;;;;5067843;28;20497;-73
2021/03/19 08:29:04;;;;;;;14.57;3.20;;;5.90;99.90;;;;;;5061765;28;20028;-74
2021/03/19 08:32:00;;;;;;;8.18;2.85;;;5.80;99.90;;;;;;5074790;28;20024;-72
2021/03/19 08:34:59;;;;;;;11.38;2.88;;;5.80;99.90;;;;;;5059501;28;20498;-74
2021/03/19 08:37:51;;;;;;;11.20;3.42;;;6.00;99.90;;;;;;5086965;28;20043;-74
2021/03/19 08:40:37;;;;;;;5.00;2.35;;;6.00;99.90;;;;;;5055740;28;20075;-73
2021/03/19 08:43:06;;;;;;;5.80;2.72;;;6.20;99.90;;;;;;5066908;28;20025;-73
2021/03/19 08:45:33;;;;;;;10.07;2.60;;;6.30;99.90;;;;;;5088536;28;20028;-73
2021/03/19 08:48:01;;;;;;;17.33;3.05;;;6.20;99.90;;;;;;5056232;28;20074;-73
2021/03/19 08:50:37;;;;;;;9.32;2.53;;;6.30;99.90;;;;;;5070072;28;20374;-74
2021/03/19 08:53:05;;;;;;;7.05;2.53;;;6.30;99.90;;;;;;5051797;28;20111;-74
2021/03/19 08:55:36;;;;;;;12.02;3.60;;;6.30;99.90;;;;;;5070240;28;20033;-73
2021/03/19 08:58:30;;;;;;;11.13;2.60;;;6.50;99.90;;;;;;5070971;28;20028;-73
2021/03/19 09:01:03;;;;;;;8.75;2.25;;;6.60;99.90;;;;;;5072679;28;20074;-72
2021/03/19 09:03:41;;;;;;;4.82;2.42;;;6.80;99.90;;;;;;5053293;28;20032;-74
2021/03/19 09:06:08;;;;;;;10.82;2.25;;;6.80;99.90;;;;;;5062808;28;20673;-73
2021/03/19 09:08:43;;;;;;;9.55;2.50;;;6.90;99.90;;;;;;5068081;28;20031;-73
2021/03/19 09:11:15;;;;;;;7.07;2.30;;;6.90;99.90;;;;;;5065358;28;20392;-73
2021/03/19 09:13:59;;;;;;;7.40;2.25;;;6.80;99.90;;;;;;5071343;28;20067;-73
2021/03/19 09:16:55;;;;;;;10.63;2.72;;;6.90;99.90;;;;;;5071924;28;20036;-74
2021/03/19 09:19:34;;;;;;;10.60;3.47;;;7.00;99.90;;;;;;5069350;28;20091;-73
2021/03/19 09:22:24;;;;;;;3.17;1.73;;;7.10;99.90;;;;;;5057353;28;20075;-73
2021/03/19 09:25:14;;;;;;;7.70;2.22;;;7.30;99.90;;;;;;5073776;28;20033;-73
2021/03/19 09:27:50;;;;;;;9.32;2.00;;;7.40;99.90;;;;;;5052679;28;20599;-73
2021/03/19 09:30:22;;;;;;;5.70;2.30;;;7.50;99.90;;;;;;5075701;28;20024;-72
2021/03/19 09:32:50;;;;;;;7.28;2.70;;;7.60;99.90;;;;;;5044956;28;20056;-73
2021/03/19 09:35:35;;;;;;;6.45;2.35;;;7.70;99.90;;;;;;5065998;28;20425;-72
2021/03/19 09:38:09;;;;;;;7.38;3.05;;;7.80;99.90;;;;;;5053690;28;20039;-72
2021/03/19 09:40:44;;;;;;;4.40;2.22;;;8.00;99.90;;;;;;5043012;28;20033;-73
2021/03/19 09:43:30;;;;;;;6.38;2.33;;;8.10;99.90;;;;;;5069680;28;20029;-73
2021/03/19 09:46:22;;;;;;;7.65;3.03;;;8.10;99.90;;;;;;5056510;28;20032;-72
2021/03/19 09:49:22;;;;;;;4.43;2.60;;;8.10;99.90;;;;;;5066871;28;20028;-72
2021/03/19 09:51:48;;;;;;;3.33;2.47;;;8.30;99.90;;;;;;5070877;28;20048;-73
2021/03/19 09:54:17;;;;;;;4.07;2.88;;;8.40;99.90;;;;;;5049458;28;20424;-73
2021/03/19 09:56:43;;;;;;;7.15;2.72;;;8.50;99.90;;;;;;5051610;28;20024;-72
2021/03/19 09:59:20;;;;;;;6.30;2.30;;;8.50;99.90;;;;;;5071626;28;20024;-74
2021/03/19 10:01:46;;;;;;;3.75;2.47;;;8.60;99.90;;;;;;5061545;28;20451;-74
2021/03/19 10:04:45;;;;;;;4.18;2.08;;;8.60;99.90;;;;;;5055887;28;20112;-71
2021/03/19 10:07:32;;;;;;;7.22;2.63;;;8.60;99.90;;;;;;5060039;28;20036;-73
2021/03/19 10:09:58;;;;;;;2.85;1.85;;;8.70;99.90;;;;;;5050437;28;20037;-73
2021/03/19 10:12:32;;;;;;;4.40;2.00;;;8.60;99.90;;;;;;5068583;28;20436;-72
2021/03/19 10:15:16;;;;;;;3.65;1.35;;;8.60;99.90;;;;;;5054603;28;20036;-72
2021/03/19 10:17:54;;;;;;;3.30;1.48;;;8.50;99.90;;;;;;5072605;28;20013;-73
2021/03/19 10:20:27;;;;;;;5.80;2.73;;;8.50;99.90;;;;;;5068561;28;20540;-73
2021/03/19 10:23:08;;;;;;;3.40;1.50;;;8.60;99.90;;;;;;5066481;28;20282;-72
2021/03/19 10:25:36;;;;;;;2.70;1.20;;;8.80;99.90;;;;;;5069355;28;20028;-74
2021/03/19 10:28:24;;;;;;;5.55;1.52;;;8.70;99.90;;;;;;5071347;28;20032;-72
2021/03/19 10:30:53;;;;;;;2.97;1.30;;;8.60;99.90;;;;;;5063767;28;20037;-75
2021/03/19 10:33:24;;;;;;;2.58;1.30;;;8.60;99.90;;;;;;5070264;28;20087;-72
2021/03/19 10:35:55;;;;;;;3.40;1.10;;;8.70;99.90;;;;;;5052807;28;20044;-75
2021/03/19 10:38:58;;;;;;;2.45;1.40;;;8.90;99.90;;;;;;5054005;28;20115;-72
2021/03/19 10:41:24;;;;;;;3.05;1.10;;;9.00;99.90;;;;;;5054132;28;20154;-74
2021/03/19 10:44:00;;;;;;;2.85;1.90;;;9.00;99.90;;;;;;5053840;28;20036;-73
2021/03/19 10:46:46;;;;;;;1.90;1.23;;;8.80;99.90;;;;;;5072042;28;20036;-71
2021/03/19 10:49:35;;;;;;;5.65;1.67;;;8.60;99.90;;;;;;5067516;28;20107;-73
2021/03/19 10:52:20;;;;;;;2.03;1.50;;;8.70;99.90;;;;;;5066107;28;20040;-73
2021/03/19 10:54:48;;;;;;;4.15;2.75;;;8.80;99.90;;;;;;5053466;28;20484;-73
2021/03/19 10:57:35;;;;;;;4.88;1.60;;;8.90;99.90;;;;;;5050117;28;20023;-72
2021/03/19 11:00:21;;;;;;;2.08;1.38;;;8.70;99.90;;;;;;5070193;28;20021;-71
2021/03/19 11:02:59;;;;;;;3.22;1.85;;;8.70;99.90;;;;;;5068442;28;20107;-73
2021/03/19 11:05:25;;;;;;;6.57;1.10;;;8.90;99.90;;;;;;5050288;28;20396;-72
2021/03/19 11:07:51;;;;;;;1.90;1.02;;;9.10;99.90;;;;;;5053525;28;20032;-72
2021/03/19 11:10:26;;;;;;;1.80;1.02;;;9.00;99.30;;;;;;5070912;28;20090;-72
2021/03/19 11:13:07;;;;;;;1.05;0.93;;;9.10;99.90;;;;;;5070358;28;20032;-72
2021/03/19 11:15:33;;;;;;;2.55;1.23;;;9.30;99.70;;;;;;5062445;28;20024;-73
2021/03/19 11:18:19;;;;;;;2.30;1.30;;;9.30;99.90;;;;;;5071229;28;20028;-73
2021/03/19 11:20:56;;;;;;;3.63;0.98;;;9.30;99.70;;;;;;5053342;28;20108;-73
2021/03/19 11:23:27;;;;;;;1.63;1.10;;;9.50;99.30;;;;;;5053581;28;20610;-72
2021/03/19 11:25:55;;;;;;;1.60;1.00;;;9.50;99.50;;;;;;5071570;28;20040;-74
2021/03/19 11:28:27;;;;;;;3.72;1.13;;;9.40;98.70;;;;;;5046734;28;20408;-73
2021/03/19 11:30:52;;;;;;;1.38;1.00;;;9.50;98.90;;;;;;5050241;28;20059;-73
2021/03/19 11:33:19;;;;;;;4.85;1.52;;;9.50;98.20;;;;;;5048311;28;20037;-75
2021/03/19 11:36:05;;;;;;;3.33;1.05;;;9.40;99.10;;;;;;5065336;28;20044;-74
2021/03/19 11:38:33;;;;;;;6.10;2.63;;;9.50;99.90;;;;;;5050947;28;20381;-73
2021/03/19 11:41:00;;;;;;;2.20;1.10;;;9.60;99.90;;;;;;5063810;28;20086;-74
2021/03/19 11:43:26;;;;;;;2.53;1.40;;;9.60;99.20;;;;;;5071633;28;20024;-73
2021/03/19 11:45:51;;;;;;;2.65;1.67;;;9.60;99.90;;;;;;5052161;28;20041;-74
2021/03/19 11:48:17;;;;;;;9.57;1.20;;;9.70;99.90;;;;;;5053226;28;20044;-73
2021/03/19 11:50:52;;;;;;;3.75;1.70;;;9.70;99.70;;;;;;5051103;28;20032;-73
2021/03/19 11:53:24;;;;;;;1.92;1.15;;;9.90;98.90;;;;;;5056673;28;20055;-75
2021/03/19 11:55:53;;;;;;;2.17;1.08;;;9.90;99.00;;;;;;5060603;28;20025;-74
2021/03/19 11:58:21;;;;;;;1.77;1.48;;;9.90;98.20;;;;;;5062814;28;20481;-73
2021/03/19 12:00:48;;;;;;;2.22;1.00;;;10.10;97.90;;;;;;5044354;28;20024;-74
2021/03/19 12:03:28;;;;;;;2.15;1.30;;;10.10;98.50;;;;;;5063505;28;20500;-73
2021/03/19 12:05:53;;;;;;;2.00;1.20;;;10.10;98.30;;;;;;5061629;28;20361;-73
2021/03/19 12:08:19;;;;;;;4.35;1.30;;;10.20;96.50;;;;;;5059356;28;20081;-73
2021/03/19 12:10:45;;;;;;;2.45;1.17;;;10.10;95.50;;;;;;5063821;28;20052;-76
2021/03/19 12:13:14;;;;;;;5.55;1.40;;;10.20;96.30;;;;;;5046878;28;20064;-72
2021/03/19 12:15:40;;;;;;;1.67;1.58;;;10.30;99.90;;;;;;5053267;28;20028;-73
2021/03/19 12:18:07;;;;;;;3.55;1.42;;;10.30;99.80;;;;;;5071686;28;20493;-73
2021/03/19 12:20:33;;;;;;;2.35;1.40;;;10.00;99.10;;;;;;5053048;28;20036;-73
2021/03/19 12:22:58;;;;;;;4.35;1.48;;;9.60;99.90;;;;;;5074004;28;20029;-73
2021/03/19 12:25:29;;;;;;;3.22;1.40;;;9.50;99.90;;;;;;5057353;28;20016;-74
2021/03/19 12:27:55;;;;;;;2.25;1.45;;;9.70;99.40;;;;;;5057375;28;20032;-73
2021/03/19 12:30:22;;;;;;;4.82;1.30;;;9.90;98.60;;;;;;5057155;28;20033;-73
2021/03/19 12:32:49;;;;;;;1.40;1.30;;;10.10;99.90;;;;;;5067113;28;20111;-73
2021/03/19 12:35:16;;;;;;;6.53;1.60;;;10.10;99.90;;;;;;5063454;28;20031;-74
2021/03/19 12:37:42;;;;;;;1.98;1.73;;;10.30;98.50;;;;;;5048608;28;20028;-73
2021/03/19 12:40:10;;;;;;;2.53;1.10;;;10.30;99.60;;;;;;5068410;28;20023;-75
2021/03/19 12:42:36;;;;;;;1.63;1.25;;;10.30;99.10;;;;;;5069500;28;20536;-73
2021/03/19 12:45:04;;;;;;;2.67;1.50;;;10.30;98.00;;;;;;5048829;28;20127;-73
2021/03/19 12:47:29;;;;;;;7.10;1.40;;;10.40;99.90;;;;;;5064458;28;20718;-73
2021/03/19 12:49:55;;;;;;;2.42;0.95;;;10.40;97.70;;;;;;5066954;28;20362;-73
2021/03/19 12:52:20;;;;;;;0.80;0.80;;;10.50;95.40;;;;;;5051560;28;20107;-73
2021/03/19 12:54:47;;;;;;;2.20;1.00;;;10.60;96.10;;;;;;5051925;28;20499;-74
2021/03/19 12:57:13;;;;;;;1.75;1.02;;;10.70;95.20;;;;;;5070237;28;20044;-74
2021/03/19 12:59:38;;;;;;;1.75;1.25;;;10.60;95.10;;;;;;5054283;28;20032;-75
2021/03/19 13:02:04;;;;;;;2.38;1.30;;;10.60;96.10;;;;;;5053494;28;20779;-74
2021/03/19 13:04:29;;;;;;;2.22;1.20;;;10.70;97.70;;;;;;5069987;28;20106;-76
2021/03/19 13:06:56;;;;;;;2.08;0.93;;;10.80;97.80;;;;;;5050956;28;20020;-74
2021/03/19 13:09:22;;;;;;;1.30;0.90;;;10.80;97.30;;;;;;5067198;28;20024;-75
2021/03/19 13:11:48;;;;;;;2.13;1.00;;;10.70;96.10;;;;;;5066902;28;20042;-74
2021/03/19 13:14:13;;;;;;;1.35;1.00;;;10.90;95.70;;;;;;5047831;28;20016;-74
2021/03/19 13:16:39;;;;;;;0.98;0.80;;;10.90;96.10;;;;;;5048191;28;20047;-73
2021/03/19 13:19:06;;;;;;;1.38;1.13;;;10.90;96.40;;;;;;5049774;28;20024;-73
2021/03/19 13:21:34;;;;;;;0.90;0.80;;;10.90;96.50;;;;;;5062376;28;20476;-73
2021/03/19 13:24:02;;;;;;;4.82;1.15;;;10.80;98.00;;;;;;5065132;28;20115;-75
2021/03/19 13:26:29;;;;;;;3.15;1.10;;;10.80;96.00;;;;;;5067165;28;20550;-74
2021/03/19 13:28:55;;;;;;;1.20;0.90;;;10.90;95.60;;;;;;5064535;28;20037;-73
2021/03/19 13:31:21;;;;;;;3.75;0.82;;;11.10;94.50;;;;;;5063863;28;20039;-72
2021/03/19 13:33:47;;;;;;;0.80;0.77;;;11.00;94.40;;;;;;5065279;28;20439;-73